sensor_id;sensor_type;location;lat;lon;timestamp;P1;durP1;ratioP1;P2;durP2;ratioP2
39654;SDS011;25336;59.944;11.010;2024-01-15T00:02:04;0.85;;;0.85;;
39654;SDS011;25336;59.944;11.010;2024-01-15T00:04:31;0.80;;;0.80;;
39654;SDS011;25336;59.944;11.010;2024-01-15T00:07:02;0.80;;;0.80;;
39654;SDS011;25336;59.944;11.010;2024-01-15T00:09:28;0.95;;;0.90;;
39654;SDS011;25336;59.944;11.010;2024-01-15T00:11:54;0.80;;;0.80;;
39654;SDS011;25336;59.944;11.010;2024-01-15T00:14:19;0.70;;;0.70;;
39654;SDS011;25336;59.944;11.010;2024-01-15T00:16:46;0.88;;;0.88;;
39654;SDS011;25336;59.944;11.010;2024-01-15T00:19:14;0.70;;;0.70;;
39654;SDS011;25336;59.944;11.010;2024-01-15T00:21:40;0.80;;;0.70;;
39654;SDS011;25336;59.944;11.010;2024-01-15T00:24:06;0.95;;;0.85;;
39654;SDS011;25336;59.944;11.010;2024-01-15T00:26:31;1.38;;;0.70;;
39654;SDS011;25336;59.944;11.010;2024-01-15T00:28:57;0.80;;;0.80;;
39654;SDS011;25336;59.944;11.010;2024-01-15T00:31:23;0.60;;;0.60;;
39654;SDS011;25336;59.944;11.010;2024-01-15T00:33:48;0.60;;;0.60;;
39654;SDS011;25336;59.944;11.010;2024-01-15T00:36:14;0.68;;;0.68;;
39654;SDS011;25336;59.944;11.010;2024-01-15T00:38:41;0.70;;;0.70;;
39654;SDS011;25336;59.944;11.010;2024-01-15T00:41:08;0.60;;;0.60;;
39654;SDS011;25336;59.944;11.010;2024-01-15T00:43:34;0.70;;;0.70;;
39654;SDS011;25336;59.944;11.010;2024-01-15T00:46:03;1.13;;;0.75;;
39654;SDS011;25336;59.944;11.010;2024-01-15T00:48:29;0.60;;;0.60;;
39654;SDS011;25336;59.944;11.010;2024-01-15T00:50:55;0.68;;;0.65;;
39654;SDS011;25336;59.944;11.010;2024-01-15T00:53:21;0.60;;;0.60;;
39654;SDS011;25336;59.944;11.010;2024-01-15T00:55:48;0.60;;;0.60;;
39654;SDS011;25336;59.944;11.010;2024-01-15T00:58:14;0.73;;;0.73;;
39654;SDS011;25336;59.944;11.010;2024-01-15T01:00:39;0.70;;;0.65;;
39654;SDS011;25336;59.944;11.010;2024-01-15T01:03:06;0.50;;;0.50;;
39654;SDS011;25336;59.944;11.010;2024-01-15T01:05:32;0.60;;;0.60;;
39654;SDS011;25336;59.944;11.010;2024-01-15T01:07:59;0.60;;;0.60;;
39654;SDS011;25336;59.944;11.010;2024-01-15T01:10:24;0.50;;;0.50;;
39654;SDS011;25336;59.944;11.010;2024-01-15T01:12:50;0.70;;;0.70;;
39654;SDS011;25336;59.944;11.010;2024-01-15T01:15:16;0.60;;;0.60;;
39654;SDS011;25336;59.944;11.010;2024-01-15T01:17:42;0.63;;;0.63;;
39654;SDS011;25336;59.944;11.010;2024-01-15T01:20:07;1.40;;;1.00;;
39654;SDS011;25336;59.944;11.010;2024-01-15T01:22:34;0.52;;;0.52;;
39654;SDS011;25336;59.944;11.010;2024-01-15T01:25:00;0.60;;;0.60;;
39654;SDS011;25336;59.944;11.010;2024-01-15T01:27:26;0.80;;;0.70;;
39654;SDS011;25336;59.944;11.010;2024-01-15T01:29:51;0.88;;;0.82;;
39654;SDS011;25336;59.944;11.010;2024-01-15T01:32:18;0.73;;;0.73;;
39654;SDS011;25336;59.944;11.010;2024-01-15T01:34:44;0.82;;;0.68;;
39654;SDS011;25336;59.944;11.010;2024-01-15T01:37:10;4.13;;;1.10;;
39654;SDS011;25336;59.944;11.010;2024-01-15T01:39:38;2.60;;;1.33;;
39654;SDS011;25336;59.944;11.010;2024-01-15T01:42:04;1.88;;;1.08;;
39654;SDS011;25336;59.944;11.010;2024-01-15T01:44:30;3.17;;;1.65;;
39654;SDS011;25336;59.944;11.010;2024-01-15T01:46:57;7.63;;;2.30;;
39654;SDS011;25336;59.944;11.010;2024-01-15T01:49:24;4.95;;;1.50;;
39654;SDS011;25336;59.944;11.010;2024-01-15T01:51:51;2.17;;;1.23;;
39654;SDS011;25336;59.944;11.010;2024-01-15T01:54:18;0.85;;;0.80;;
39654;SDS011;25336;59.944;11.010;2024-01-15T01:56:45;2.63;;;1.35;;
39654;SDS011;25336;59.944;11.010;2024-01-15T01:59:13;4.85;;;1.83;;
39654;SDS011;25336;59.944;11.010;2024-01-15T02:01:39;3.38;;;1.08;;
39654;SDS011;25336;59.944;11.010;2024-01-15T02:04:06;1.00;;;0.93;;
39654;SDS011;25336;59.944;11.010;2024-01-15T02:06:33;1.88;;;1.27;;
39654;SDS011;25336;59.944;11.010;2024-01-15T02:08:59;1.10;;;1.00;;
39654;SDS011;25336;59.944;11.010;2024-01-15T02:11:25;0.82;;;0.82;;
39654;SDS011;25336;59.944;11.010;2024-01-15T02:13:51;0.60;;;0.60;;
39654;SDS011;25336;59.944;11.010;2024-01-15T02:16:17;0.80;;;0.80;;
39654;SDS011;25336;59.944;11.010;2024-01-15T02:18:43;0.70;;;0.70;;
39654;SDS011;25336;59.944;11.010;2024-01-15T02:21:10;0.85;;;0.85;;
39654;SDS011;25336;59.944;11.010;2024-01-15T02:23:36;0.50;;;0.50;;
39654;SDS011;25336;59.944;11.010;2024-01-15T02:26:02;0.60;;;0.60;;
39654;SDS011;25336;59.944;11.010;2024-01-15T02:28:30;1.08;;;0.80;;
39654;SDS011;25336;59.944;11.010;2024-01-15T02:30:57;0.60;;;0.60;;
39654;SDS011;25336;59.944;11.010;2024-01-15T02:33:24;0.68;;;0.68;;
39654;SDS011;25336;59.944;11.010;2024-01-15T02:35:50;0.70;;;0.70;;
39654;SDS011;25336;59.944;11.010;2024-01-15T02:38:17;0.60;;;0.60;;
39654;SDS011;25336;59.944;11.010;2024-01-15T02:40:43;0.80;;;0.80;;
39654;SDS011;25336;59.944;11.010;2024-01-15T02:43:10;0.60;;;0.60;;
39654;SDS011;25336;59.944;11.010;2024-01-15T02:45:36;0.73;;;0.73;;
39654;SDS011;25336;59.944;11.010;2024-01-15T02:48:02;0.70;;;0.70;;
39654;SDS011;25336;59.944;11.010;2024-01-15T02:50:27;0.70;;;0.70;;
39654;SDS011;25336;59.944;11.010;2024-01-15T02:52:53;1.70;;;0.70;;
39654;SDS011;25336;59.944;11.010;2024-01-15T02:55:19;0.50;;;0.50;;
39654;SDS011;25336;59.944;11.010;2024-01-15T02:57:45;0.75;;;0.75;;
39654;SDS011;25336;59.944;11.010;2024-01-15T03:00:11;0.70;;;0.70;;
39654;SDS011;25336;59.944;11.010;2024-01-15T03:02:37;0.60;;;0.60;;
39654;SDS011;25336;59.944;11.010;2024-01-15T03:05:08;0.70;;;0.70;;
39654;SDS011;25336;59.944;11.010;2024-01-15T03:07:34;0.85;;;0.85;;
39654;SDS011;25336;59.944;11.010;2024-01-15T03:10:00;0.70;;;0.70;;
39654;SDS011;25336;59.944;11.010;2024-01-15T03:12:26;0.70;;;0.70;;
39654;SDS011;25336;59.944;11.010;2024-01-15T03:14:52;0.65;;;0.65;;
39654;SDS011;25336;59.944;11.010;2024-01-15T03:17:18;0.50;;;0.50;;
39654;SDS011;25336;59.944;11.010;2024-01-15T03:19:43;0.70;;;0.70;;
39654;SDS011;25336;59.944;11.010;2024-01-15T03:22:09;0.57;;;0.57;;
39654;SDS011;25336;59.944;11.010;2024-01-15T03:24:35;0.70;;;0.70;;
39654;SDS011;25336;59.944;11.010;2024-01-15T03:27:01;0.60;;;0.60;;
39654;SDS011;25336;59.944;11.010;2024-01-15T03:29:27;0.50;;;0.50;;
39654;SDS011;25336;59.944;11.010;2024-01-15T03:31:53;0.90;;;0.80;;
39654;SDS011;25336;59.944;11.010;2024-01-15T03:34:19;0.70;;;0.70;;
39654;SDS011;25336;59.944;11.010;2024-01-15T03:36:45;2.00;;;1.00;;
39654;SDS011;25336;59.944;11.010;2024-01-15T03:39:11;0.98;;;0.88;;
39654;SDS011;25336;59.944;11.010;2024-01-15T03:41:36;0.70;;;0.70;;
39654;SDS011;25336;59.944;11.010;2024-01-15T03:44:02;0.80;;;0.80;;
39654;SDS011;25336;59.944;11.010;2024-01-15T03:46:28;0.60;;;0.60;;
39654;SDS011;25336;59.944;11.010;2024-01-15T03:48:54;1.27;;;0.88;;
39654;SDS011;25336;59.944;11.010;2024-01-15T03:51:19;0.95;;;0.80;;
39654;SDS011;25336;59.944;11.010;2024-01-15T03:53:45;1.75;;;1.00;;
39654;SDS011;25336;59.944;11.010;2024-01-15T03:56:11;0.80;;;0.80;;
39654;SDS011;25336;59.944;11.010;2024-01-15T03:58:37;1.58;;;0.80;;
39654;SDS011;25336;59.944;11.010;2024-01-15T04:01:03;1.02;;;0.90;;
39654;SDS011;25336;59.944;11.010;2024-01-15T04:03:32;1.55;;;1.08;;
39654;SDS011;25336;59.944;11.010;2024-01-15T04:05:58;0.70;;;0.70;;
39654;SDS011;25336;59.944;11.010;2024-01-15T04:08:23;2.60;;;0.70;;
39654;SDS011;25336;59.944;11.010;2024-01-15T04:10:49;5.53;;;1.10;;
39654;SDS011;25336;59.944;11.010;2024-01-15T04:13:15;1.98;;;0.90;;
39654;SDS011;25336;59.944;11.010;2024-01-15T04:15:40;2.25;;;1.42;;
39654;SDS011;25336;59.944;11.010;2024-01-15T04:18:06;3.67;;;1.23;;
39654;SDS011;25336;59.944;11.010;2024-01-15T04:20:32;1.83;;;1.08;;
39654;SDS011;25336;59.944;11.010;2024-01-15T04:22:57;1.85;;;1.08;;
39654;SDS011;25336;59.944;11.010;2024-01-15T04:25:23;1.27;;;1.17;;
39654;SDS011;25336;59.944;11.010;2024-01-15T04:27:49;2.65;;;1.25;;
39654;SDS011;25336;59.944;11.010;2024-01-15T04:30:14;1.58;;;1.27;;
39654;SDS011;25336;59.944;11.010;2024-01-15T04:32:40;0.80;;;0.80;;
39654;SDS011;25336;59.944;11.010;2024-01-15T04:35:06;1.17;;;1.08;;
39654;SDS011;25336;59.944;11.010;2024-01-15T04:37:32;2.65;;;0.80;;
39654;SDS011;25336;59.944;11.010;2024-01-15T04:39:57;0.80;;;0.80;;
39654;SDS011;25336;59.944;11.010;2024-01-15T04:42:23;1.50;;;0.80;;
39654;SDS011;25336;59.944;11.010;2024-01-15T04:44:49;0.80;;;0.80;;
39654;SDS011;25336;59.944;11.010;2024-01-15T04:47:15;0.90;;;0.82;;
39654;SDS011;25336;59.944;11.010;2024-01-15T04:49:40;0.63;;;0.63;;
39654;SDS011;25336;59.944;11.010;2024-01-15T04:52:06;2.25;;;1.10;;
39654;SDS011;25336;59.944;11.010;2024-01-15T04:54:35;1.63;;;1.30;;
39654;SDS011;25336;59.944;11.010;2024-01-15T04:57:01;1.70;;;1.23;;
39654;SDS011;25336;59.944;11.010;2024-01-15T04:59:27;1.77;;;1.20;;
39654;SDS011;25336;59.944;11.010;2024-01-15T05:01:53;1.25;;;1.15;;
39654;SDS011;25336;59.944;11.010;2024-01-15T05:04:20;1.63;;;1.38;;
39654;SDS011;25336;59.944;11.010;2024-01-15T05:06:45;2.88;;;1.55;;
39654;SDS011;25336;59.944;11.010;2024-01-15T05:09:11;2.72;;;1.63;;
39654;SDS011;25336;59.944;11.010;2024-01-15T05:11:38;4.40;;;1.77;;
39654;SDS011;25336;59.944;11.010;2024-01-15T05:14:04;1.42;;;1.08;;
39654;SDS011;25336;59.944;11.010;2024-01-15T05:16:30;3.20;;;1.27;;
39654;SDS011;25336;59.944;11.010;2024-01-15T05:18:56;2.00;;;1.20;;
39654;SDS011;25336;59.944;11.010;2024-01-15T05:21:21;3.13;;;2.00;;
39654;SDS011;25336;59.944;11.010;2024-01-15T05:23:47;7.03;;;2.55;;
39654;SDS011;25336;59.944;11.010;2024-01-15T05:26:13;5.78;;;2.08;;
39654;SDS011;25336;59.944;11.010;2024-01-15T05:28:40;2.42;;;2.22;;
39654;SDS011;25336;59.944;11.010;2024-01-15T05:31:08;4.93;;;2.28;;
39654;SDS011;25336;59.944;11.010;2024-01-15T05:33:34;6.40;;;1.85;;
39654;SDS011;25336;59.944;11.010;2024-01-15T05:36:00;3.72;;;1.52;;
39654;SDS011;25336;59.944;11.010;2024-01-15T05:38:25;4.85;;;1.73;;
39654;SDS011;25336;59.944;11.010;2024-01-15T05:40:52;3.35;;;1.58;;
39654;SDS011;25336;59.944;11.010;2024-01-15T05:43:18;2.38;;;1.70;;
39654;SDS011;25336;59.944;11.010;2024-01-15T05:45:43;6.10;;;2.42;;
39654;SDS011;25336;59.944;11.010;2024-01-15T05:48:12;2.28;;;1.60;;
39654;SDS011;25336;59.944;11.010;2024-01-15T05:50:38;2.65;;;1.48;;
39654;SDS011;25336;59.944;11.010;2024-01-15T05:53:04;1.83;;;1.40;;
39654;SDS011;25336;59.944;11.010;2024-01-15T05:55:30;2.80;;;1.42;;
39654;SDS011;25336;59.944;11.010;2024-01-15T05:57:55;2.15;;;1.58;;
39654;SDS011;25336;59.944;11.010;2024-01-15T06:00:21;1.40;;;1.23;;
39654;SDS011;25336;59.944;11.010;2024-01-15T06:02:47;1.17;;;1.10;;
39654;SDS011;25336;59.944;11.010;2024-01-15T06:05:13;2.13;;;1.65;;
39654;SDS011;25336;59.944;11.010;2024-01-15T06:07:39;4.20;;;2.10;;
39654;SDS011;25336;59.944;11.010;2024-01-15T06:10:04;7.28;;;2.85;;
39654;SDS011;25336;59.944;11.010;2024-01-15T06:12:31;14.85;;;5.43;;
39654;SDS011;25336;59.944;11.010;2024-01-15T06:14:58;9.13;;;4.00;;
39654;SDS011;25336;59.944;11.010;2024-01-15T06:17:24;5.40;;;2.38;;
39654;SDS011;25336;59.944;11.010;2024-01-15T06:19:50;3.83;;;2.25;;
39654;SDS011;25336;59.944;11.010;2024-01-15T06:22:16;2.17;;;1.70;;
39654;SDS011;25336;59.944;11.010;2024-01-15T06:24:41;3.30;;;1.83;;
39654;SDS011;25336;59.944;11.010;2024-01-15T06:27:07;1.95;;;1.40;;
39654;SDS011;25336;59.944;11.010;2024-01-15T06:29:33;1.92;;;1.77;;
39654;SDS011;25336;59.944;11.010;2024-01-15T06:32:02;3.72;;;2.03;;
39654;SDS011;25336;59.944;11.010;2024-01-15T06:34:28;3.72;;;1.90;;
39654;SDS011;25336;59.944;11.010;2024-01-15T06:36:53;4.65;;;3.40;;
39654;SDS011;25336;59.944;11.010;2024-01-15T06:39:19;5.65;;;2.67;;
39654;SDS011;25336;59.944;11.010;2024-01-15T06:41:45;3.63;;;2.33;;
39654;SDS011;25336;59.944;11.010;2024-01-15T06:44:11;3.08;;;1.98;;
39654;SDS011;25336;59.944;11.010;2024-01-15T06:46:37;5.63;;;3.03;;
39654;SDS011;25336;59.944;11.010;2024-01-15T06:49:06;6.95;;;3.85;;
39654;SDS011;25336;59.944;11.010;2024-01-15T06:51:32;10.60;;;4.07;;
39654;SDS011;25336;59.944;11.010;2024-01-15T06:53:58;7.80;;;3.90;;
39654;SDS011;25336;59.944;11.010;2024-01-15T06:56:23;4.72;;;3.10;;
39654;SDS011;25336;59.944;11.010;2024-01-15T06:58:49;3.45;;;1.92;;
39654;SDS011;25336;59.944;11.010;2024-01-15T07:01:15;4.80;;;2.88;;
39654;SDS011;25336;59.944;11.010;2024-01-15T07:03:40;10.93;;;3.88;;
39654;SDS011;25336;59.944;11.010;2024-01-15T07:06:06;16.27;;;6.13;;
39654;SDS011;25336;59.944;11.010;2024-01-15T07:08:32;20.70;;;8.18;;
39654;SDS011;25336;59.944;11.010;2024-01-15T07:10:57;8.45;;;4.70;;
39654;SDS011;25336;59.944;11.010;2024-01-15T07:13:23;11.40;;;7.03;;
39654;SDS011;25336;59.944;11.010;2024-01-15T07:15:49;9.75;;;4.88;;
39654;SDS011;25336;59.944;11.010;2024-01-15T07:18:15;12.38;;;6.35;;
39654;SDS011;25336;59.944;11.010;2024-01-15T07:20:41;11.80;;;6.75;;
39654;SDS011;25336;59.944;11.010;2024-01-15T07:23:07;23.63;;;6.18;;
39654;SDS011;25336;59.944;11.010;2024-01-15T07:25:32;8.75;;;5.43;;
39654;SDS011;25336;59.944;11.010;2024-01-15T07:27:58;7.22;;;3.95;;
39654;SDS011;25336;59.944;11.010;2024-01-15T07:30:24;16.17;;;3.85;;
39654;SDS011;25336;59.944;11.010;2024-01-15T07:32:50;15.98;;;7.45;;
39654;SDS011;25336;59.944;11.010;2024-01-15T07:35:17;10.27;;;4.82;;
39654;SDS011;25336;59.944;11.010;2024-01-15T07:37:43;9.32;;;4.93;;
39654;SDS011;25336;59.944;11.010;2024-01-15T07:40:09;10.23;;;5.50;;
39654;SDS011;25336;59.944;11.010;2024-01-15T07:42:35;14.43;;;6.70;;
39654;SDS011;25336;59.944;11.010;2024-01-15T07:45:01;11.95;;;4.90;;
39654;SDS011;25336;59.944;11.010;2024-01-15T07:47:27;9.40;;;5.05;;
39654;SDS011;25336;59.944;11.010;2024-01-15T07:49:53;11.82;;;5.07;;
39654;SDS011;25336;59.944;11.010;2024-01-15T07:52:19;7.72;;;5.00;;
39654;SDS011;25336;59.944;11.010;2024-01-15T07:54:45;7.72;;;4.85;;
39654;SDS011;25336;59.944;11.010;2024-01-15T07:57:11;8.00;;;5.82;;
39654;SDS011;25336;59.944;11.010;2024-01-15T07:59:36;8.43;;;6.05;;
39654;SDS011;25336;59.944;11.010;2024-01-15T08:02:02;21.08;;;8.68;;
39654;SDS011;25336;59.944;11.010;2024-01-15T08:04:28;17.55;;;7.80;;
39654;SDS011;25336;59.944;11.010;2024-01-15T08:06:54;17.85;;;6.22;;
39654;SDS011;25336;59.944;11.010;2024-01-15T08:09:20;15.07;;;6.88;;
39654;SDS011;25336;59.944;11.010;2024-01-15T08:11:45;13.30;;;7.20;;
39654;SDS011;25336;59.944;11.010;2024-01-15T08:14:11;8.32;;;5.00;;
39654;SDS011;25336;59.944;11.010;2024-01-15T08:16:38;6.13;;;3.67;;
39654;SDS011;25336;59.944;11.010;2024-01-15T08:19:04;10.30;;;4.40;;
39654;SDS011;25336;59.944;11.010;2024-01-15T08:21:30;6.18;;;4.32;;
39654;SDS011;25336;59.944;11.010;2024-01-15T08:23:57;6.43;;;4.00;;
39654;SDS011;25336;59.944;11.010;2024-01-15T08:26:29;5.32;;;4.03;;
39654;SDS011;25336;59.944;11.010;2024-01-15T08:28:55;6.88;;;4.13;;
39654;SDS011;25336;59.944;11.010;2024-01-15T08:31:21;12.85;;;6.05;;
39654;SDS011;25336;59.944;11.010;2024-01-15T08:33:46;9.90;;;5.25;;
39654;SDS011;25336;59.944;11.010;2024-01-15T08:36:12;9.23;;;5.03;;
39654;SDS011;25336;59.944;11.010;2024-01-15T08:38:38;8.77;;;4.40;;
39654;SDS011;25336;59.944;11.010;2024-01-15T08:41:04;5.88;;;4.03;;
39654;SDS011;25336;59.944;11.010;2024-01-15T08:43:30;6.95;;;4.15;;
39654;SDS011;25336;59.944;11.010;2024-01-15T08:45:56;6.93;;;4.20;;
39654;SDS011;25336;59.944;11.010;2024-01-15T08:48:22;6.40;;;3.83;;
39654;SDS011;25336;59.944;11.010;2024-01-15T08:50:48;6.45;;;3.78;;
39654;SDS011;25336;59.944;11.010;2024-01-15T08:53:14;10.30;;;6.28;;
39654;SDS011;25336;59.944;11.010;2024-01-15T08:55:40;9.88;;;6.45;;
39654;SDS011;25336;59.944;11.010;2024-01-15T08:58:07;13.60;;;7.82;;
39654;SDS011;25336;59.944;11.010;2024-01-15T09:00:33;12.65;;;7.43;;
39654;SDS011;25336;59.944;11.010;2024-01-15T09:02:59;8.68;;;5.53;;
39654;SDS011;25336;59.944;11.010;2024-01-15T09:05:25;6.03;;;3.90;;
39654;SDS011;25336;59.944;11.010;2024-01-15T09:07:51;6.82;;;3.45;;
39654;SDS011;25336;59.944;11.010;2024-01-15T09:10:17;2.97;;;2.67;;
39654;SDS011;25336;59.944;11.010;2024-01-15T09:12:43;4.07;;;2.92;;
39654;SDS011;25336;59.944;11.010;2024-01-15T09:15:09;6.40;;;3.80;;
39654;SDS011;25336;59.944;11.010;2024-01-15T09:17:35;8.25;;;4.93;;
39654;SDS011;25336;59.944;11.010;2024-01-15T09:20:01;6.07;;;3.70;;
39654;SDS011;25336;59.944;11.010;2024-01-15T09:22:29;11.70;;;4.15;;
39654;SDS011;25336;59.944;11.010;2024-01-15T09:24:55;6.38;;;3.78;;
39654;SDS011;25336;59.944;11.010;2024-01-15T09:27:21;9.95;;;5.30;;
39654;SDS011;25336;59.944;11.010;2024-01-15T09:29:46;18.65;;;9.60;;
39654;SDS011;25336;59.944;11.010;2024-01-15T09:32:12;13.38;;;6.35;;
39654;SDS011;25336;59.944;11.010;2024-01-15T09:34:38;9.73;;;5.32;;
39654;SDS011;25336;59.944;11.010;2024-01-15T09:37:04;8.50;;;4.63;;
39654;SDS011;25336;59.944;11.010;2024-01-15T09:39:30;11.73;;;4.78;;
39654;SDS011;25336;59.944;11.010;2024-01-15T09:41:57;10.27;;;5.00;;
39654;SDS011;25336;59.944;11.010;2024-01-15T09:44:23;10.57;;;5.30;;
39654;SDS011;25336;59.944;11.010;2024-01-15T09:46:49;9.23;;;4.72;;
39654;SDS011;25336;59.944;11.010;2024-01-15T09:49:16;15.50;;;5.13;;
39654;SDS011;25336;59.944;11.010;2024-01-15T09:51:42;9.05;;;4.45;;
39654;SDS011;25336;59.944;11.010;2024-01-15T09:54:08;6.30;;;3.45;;
39654;SDS011;25336;59.944;11.010;2024-01-15T09:56:35;7.57;;;3.95;;
39654;SDS011;25336;59.944;11.010;2024-01-15T09:59:01;21.00;;;9.40;;
39654;SDS011;25336;59.944;11.010;2024-01-15T10:01:29;35.08;;;18.83;;
39654;SDS011;25336;59.944;11.010;2024-01-15T10:03:57;39.10;;;18.95;;
39654;SDS011;25336;59.944;11.010;2024-01-15T10:06:23;21.08;;;9.70;;
39654;SDS011;25336;59.944;11.010;2024-01-15T10:08:55;23.13;;;8.70;;
39654;SDS011;25336;59.944;11.010;2024-01-15T10:11:23;21.77;;;9.13;;
39654;SDS011;25336;59.944;11.010;2024-01-15T10:13:49;37.75;;;13.90;;
39654;SDS011;25336;59.944;11.010;2024-01-15T10:16:21;40.22;;;15.05;;
39654;SDS011;25336;59.944;11.010;2024-01-15T10:18:47;45.22;;;17.60;;
39654;SDS011;25336;59.944;11.010;2024-01-15T10:21:14;27.58;;;11.32;;
39654;SDS011;25336;59.944;11.010;2024-01-15T10:23:40;19.83;;;8.77;;
39654;SDS011;25336;59.944;11.010;2024-01-15T10:26:06;14.93;;;6.97;;
39654;SDS011;25336;59.944;11.010;2024-01-15T10:28:32;11.75;;;6.43;;
39654;SDS011;25336;59.944;11.010;2024-01-15T10:30:59;17.58;;;10.30;;
39654;SDS011;25336;59.944;11.010;2024-01-15T10:33:25;26.38;;;11.05;;
39654;SDS011;25336;59.944;11.010;2024-01-15T10:35:58;15.25;;;8.27;;
39654;SDS011;25336;59.944;11.010;2024-01-15T10:38:25;14.70;;;7.93;;
39654;SDS011;25336;59.944;11.010;2024-01-15T10:40:55;15.02;;;7.47;;
39654;SDS011;25336;59.944;11.010;2024-01-15T10:43:22;12.02;;;6.63;;
39654;SDS011;25336;59.944;11.010;2024-01-15T10:45:49;8.90;;;6.20;;
39654;SDS011;25336;59.944;11.010;2024-01-15T10:48:16;13.95;;;8.88;;
39654;SDS011;25336;59.944;11.010;2024-01-15T10:50:43;13.10;;;7.32;;
39654;SDS011;25336;59.944;11.010;2024-01-15T10:53:11;10.45;;;6.35;;
39654;SDS011;25336;59.944;11.010;2024-01-15T10:55:38;12.82;;;6.45;;
39654;SDS011;25336;59.944;11.010;2024-01-15T10:58:05;10.85;;;6.90;;
39654;SDS011;25336;59.944;11.010;2024-01-15T11:00:33;10.35;;;5.82;;
39654;SDS011;25336;59.944;11.010;2024-01-15T11:03:00;11.30;;;5.68;;
39654;SDS011;25336;59.944;11.010;2024-01-15T11:05:27;6.68;;;4.63;;
39654;SDS011;25336;59.944;11.010;2024-01-15T11:07:56;7.55;;;4.80;;
39654;SDS011;25336;59.944;11.010;2024-01-15T11:13:21;8.82;;;4.00;;
39654;SDS011;25336;59.944;11.010;2024-01-15T11:15:54;7.47;;;3.97;;
39654;SDS011;25336;59.944;11.010;2024-01-15T11:18:22;9.88;;;4.63;;
39654;SDS011;25336;59.944;11.010;2024-01-15T11:23:55;7.00;;;3.28;;
39654;SDS011;25336;59.944;11.010;2024-01-15T11:28:54;5.13;;;3.35;;
39654;SDS011;25336;59.944;11.010;2024-01-15T11:31:25;6.97;;;3.92;;
39654;SDS011;25336;59.944;11.010;2024-01-15T11:33:52;6.07;;;4.05;;
39654;SDS011;25336;59.944;11.010;2024-01-15T11:36:18;8.35;;;4.63;;
39654;SDS011;25336;59.944;11.010;2024-01-15T11:38:44;9.32;;;4.85;;
39654;SDS011;25336;59.944;11.010;2024-01-15T11:41:14;8.52;;;5.88;;
39654;SDS011;25336;59.944;11.010;2024-01-15T11:43:41;14.05;;;6.93;;
39654;SDS011;25336;59.944;11.010;2024-01-15T11:46:10;10.57;;;5.53;;
39654;SDS011;25336;59.944;11.010;2024-01-15T11:48:44;13.52;;;4.57;;
39654;SDS011;25336;59.944;11.010;2024-01-15T11:51:13;8.00;;;5.10;;
39654;SDS011;25336;59.944;11.010;2024-01-15T11:53:45;13.52;;;8.60;;
39654;SDS011;25336;59.944;11.010;2024-01-15T11:56:16;9.52;;;6.35;;
39654;SDS011;25336;59.944;11.010;2024-01-15T11:58:43;16.88;;;9.45;;
39654;SDS011;25336;59.944;11.010;2024-01-15T12:01:13;10.95;;;5.15;;
39654;SDS011;25336;59.944;11.010;2024-01-15T12:03:39;10.48;;;5.20;;
39654;SDS011;25336;59.944;11.010;2024-01-15T12:06:05;18.95;;;6.57;;
39654;SDS011;25336;59.944;11.010;2024-01-15T12:08:32;13.05;;;5.55;;
39654;SDS011;25336;59.944;11.010;2024-01-15T12:10:57;8.68;;;5.25;;
39654;SDS011;25336;59.944;11.010;2024-01-15T12:13:23;11.80;;;5.05;;
39654;SDS011;25336;59.944;11.010;2024-01-15T12:15:49;12.40;;;6.35;;
39654;SDS011;25336;59.944;11.010;2024-01-15T12:18:16;27.17;;;10.73;;
39654;SDS011;25336;59.944;11.010;2024-01-15T12:20:43;18.55;;;7.63;;
39654;SDS011;25336;59.944;11.010;2024-01-15T12:23:12;9.10;;;4.47;;
39654;SDS011;25336;59.944;11.010;2024-01-15T12:25:41;9.85;;;5.18;;
39654;SDS011;25336;59.944;11.010;2024-01-15T12:28:08;9.82;;;4.82;;
39654;SDS011;25336;59.944;11.010;2024-01-15T12:30:34;8.13;;;4.85;;
39654;SDS011;25336;59.944;11.010;2024-01-15T12:33:01;11.48;;;6.60;;
39654;SDS011;25336;59.944;11.010;2024-01-15T12:35:29;9.73;;;5.07;;
39654;SDS011;25336;59.944;11.010;2024-01-15T12:37:55;7.35;;;4.35;;
39654;SDS011;25336;59.944;11.010;2024-01-15T12:40:21;9.75;;;4.63;;
39654;SDS011;25336;59.944;11.010;2024-01-15T12:42:48;7.72;;;5.30;;
39654;SDS011;25336;59.944;11.010;2024-01-15T12:45:14;14.82;;;5.82;;
39654;SDS011;25336;59.944;11.010;2024-01-15T12:47:40;13.30;;;6.88;;
39654;SDS011;25336;59.944;11.010;2024-01-15T12:50:10;18.48;;;6.13;;
39654;SDS011;25336;59.944;11.010;2024-01-15T12:52:37;24.33;;;9.00;;
39654;SDS011;25336;59.944;11.010;2024-01-15T12:55:05;48.85;;;19.70;;
39654;SDS011;25336;59.944;11.010;2024-01-15T12:57:32;22.90;;;10.23;;
39654;SDS011;25336;59.944;11.010;2024-01-15T12:59:57;23.70;;;8.40;;
39654;SDS011;25336;59.944;11.010;2024-01-15T13:02:23;13.82;;;7.28;;
39654;SDS011;25336;59.944;11.010;2024-01-15T13:04:49;12.52;;;6.10;;
39654;SDS011;25336;59.944;11.010;2024-01-15T13:07:15;10.77;;;5.22;;
39654;SDS011;25336;59.944;11.010;2024-01-15T13:09:41;16.10;;;6.00;;
39654;SDS011;25336;59.944;11.010;2024-01-15T13:12:07;11.98;;;5.53;;
39654;SDS011;25336;59.944;11.010;2024-01-15T13:14:33;16.05;;;5.88;;
39654;SDS011;25336;59.944;11.010;2024-01-15T13:16:59;16.60;;;6.07;;
39654;SDS011;25336;59.944;11.010;2024-01-15T13:19:25;14.48;;;7.60;;
39654;SDS011;25336;59.944;11.010;2024-01-15T13:21:51;13.73;;;7.72;;
39654;SDS011;25336;59.944;11.010;2024-01-15T13:24:18;12.13;;;6.60;;
39654;SDS011;25336;59.944;11.010;2024-01-15T13:26:43;11.70;;;6.20;;
39654;SDS011;25336;59.944;11.010;2024-01-15T13:29:09;12.85;;;7.32;;
39654;SDS011;25336;59.944;11.010;2024-01-15T13:31:35;15.13;;;6.55;;
39654;SDS011;25336;59.944;11.010;2024-01-15T13:34:00;15.32;;;8.90;;
39654;SDS011;25336;59.944;11.010;2024-01-15T13:36:26;12.70;;;8.65;;
39654;SDS011;25336;59.944;11.010;2024-01-15T13:38:53;17.40;;;10.02;;
39654;SDS011;25336;59.944;11.010;2024-01-15T13:41:19;25.83;;;12.45;;
39654;SDS011;25336;59.944;11.010;2024-01-15T13:43:52;15.00;;;6.72;;
39654;SDS011;25336;59.944;11.010;2024-01-15T13:46:20;10.55;;;6.63;;
39654;SDS011;25336;59.944;11.010;2024-01-15T13:48:49;15.50;;;8.02;;
39654;SDS011;25336;59.944;11.010;2024-01-15T13:51:14;19.02;;;9.60;;
39654;SDS011;25336;59.944;11.010;2024-01-15T13:53:40;15.80;;;7.90;;
39654;SDS011;25336;59.944;11.010;2024-01-15T13:56:07;14.95;;;6.97;;
39654;SDS011;25336;59.944;11.010;2024-01-15T13:58:33;41.58;;;17.55;;
39654;SDS011;25336;59.944;11.010;2024-01-15T14:01:00;27.95;;;10.73;;
39654;SDS011;25336;59.944;11.010;2024-01-15T14:03:26;17.10;;;9.07;;
39654;SDS011;25336;59.944;11.010;2024-01-15T14:05:52;17.92;;;8.80;;
39654;SDS011;25336;59.944;11.010;2024-01-15T14:08:17;20.17;;;9.98;;
39654;SDS011;25336;59.944;11.010;2024-01-15T14:10:43;18.13;;;9.60;;
39654;SDS011;25336;59.944;11.010;2024-01-15T14:13:09;18.15;;;9.13;;
39654;SDS011;25336;59.944;11.010;2024-01-15T14:15:35;23.48;;;12.57;;
39654;SDS011;25336;59.944;11.010;2024-01-15T14:18:01;21.60;;;10.38;;
39654;SDS011;25336;59.944;11.010;2024-01-15T14:20:27;18.20;;;9.18;;
39654;SDS011;25336;59.944;11.010;2024-01-15T14:22:53;18.70;;;10.43;;
39654;SDS011;25336;59.944;11.010;2024-01-15T14:25:20;18.15;;;10.13;;
39654;SDS011;25336;59.944;11.010;2024-01-15T14:27:46;17.70;;;9.65;;
39654;SDS011;25336;59.944;11.010;2024-01-15T14:30:12;17.38;;;8.38;;
39654;SDS011;25336;59.944;11.010;2024-01-15T14:32:39;21.63;;;11.40;;